Time,TemperatureF,DewpointF,PressureIn,WindDirection,WindDirectionDegrees,WindSpeedMPH,WindSpeedGustMPH,Humidity,HourlyPrecipIn,Conditions,Clouds,dailyrainin,SolarRadiationWatts/m^2,SoftwareType,DateUTC
2013-02-16 00:02:00,43.8,40.0,30.30,NE,51,0.0,0.0,85,0.00,,,0.00,0,weatherlink.com 1.10,2013-02-16 08:02:00,
2013-02-16 00:17:00,43.4,40.0,30.30,NE,51,0.0,0.0,86,0.00,,,0.00,0,weatherlink.com 1.10,2013-02-16 08:17:00,
2013-02-16 00:32:00,43.2,39.0,30.29,NE,51,0.0,0.0,86,0.00,,,0.00,0,weatherlink.com 1.10,2013-02-16 08:32:00,
2013-02-16 00:48:00,42.9,39.0,30.29,NE,51,0.0,0.0,86,0.00,,,0.00,0,weatherlink.com 1.10,2013-02-16 08:48:00,
2013-02-16 01:03:00,42.5,39.0,30.29,NE,51,0.0,0.0,87,0.00,,,0.00,0,weatherlink.com 1.10,2013-02-16 09:03:00,
2013-02-16 01:18:00,42.3,39.0,30.29,NE,51,0.0,1.0,87,0.00,,,0.00,0,weatherlink.com 1.10,2013-02-16 09:18:00,
2013-02-16 01:33:00,42.0,39.0,30.29,NE,51,0.0,0.0,88,0.00,,,0.00,0,weatherlink.com 1.10,2013-02-16 09:33:00,
2013-02-16 01:48:00,41.6,38.0,30.29,NE,51,0.0,1.0,87,0.00,,,0.00,0,weatherlink.com 1.10,2013-02-16 09:48:00,
2013-02-16 02:03:00,41.3,38.0,30.29,NE,51,0.0,0.0,88,0.00,,,0.00,0,weatherlink.com 1.10,2013-02-16 10:03:00,
2013-02-16 02:18:00,40.9,38.0,30.29,NE,51,0.0,0.0,88,0.00,,,0.00,0,weatherlink.com 1.10,2013-02-16 10:18:00,
2013-02-16 02:33:00,40.7,38.0,30.28,NE,51,0.0,1.0,88,0.00,,,0.00,0,weatherlink.com 1.10,2013-02-16 10:33:00,
2013-02-16 02:48:00,40.5,37.0,30.27,NE,51,0.0,0.0,88,0.00,,,0.00,0,weatherlink.com 1.10,2013-02-16 10:48:00,
2013-02-16 03:03:00,40.2,37.0,30.27,NE,51,0.0,0.0,89,0.00,,,0.00,0,weatherlink.com 1.10,2013-02-16 11:03:00,
2013-02-16 03:18:00,40.1,37.0,30.27,NE,51,0.0,0.0,89,0.00,,,0.00,0,weatherlink.com 1.10,2013-02-16 11:18:00,
2013-02-16 03:33:00,39.7,37.0,30.27,NE,51,0.0,0.0,89,0.00,,,0.00,0,weatherlink.com 1.10,2013-02-16 11:33:00,
2013-02-16 03:48:00,39.5,37.0,30.26,NE,51,0.0,0.0,89,0.00,,,0.00,0,weatherlink.com 1.10,2013-02-16 11:48:00,
2013-02-16 04:03:00,39.3,36.0,30.26,NE,51,0.0,0.0,89,0.00,,,0.00,0,weatherlink.com 1.10,2013-02-16 12:03:00,
2013-02-16 04:18:00,39.2,37.0,30.25,NE,51,0.0,0.0,90,0.00,,,0.00,0,weatherlink.com 1.10,2013-02-16 12:18:00,
2013-02-16 04:33:00,39.1,36.0,30.25,NE,51,0.0,0.0,89,0.00,,,0.00,0,weatherlink.com 1.10,2013-02-16 12:33:00,
2013-02-16 04:48:00,38.9,36.0,30.25,NE,51,0.0,0.0,90,0.00,,,0.00,0,weatherlink.com 1.10,2013-02-16 12:48:00,
2013-02-16 05:03:00,38.6,36.0,30.26,NE,51,0.0,0.0,89,0.00,,,0.00,0,weatherlink.com 1.10,2013-02-16 13:03:00,
2013-02-16 05:18:00,38.4,36.0,30.25,NE,51,0.0,0.0,90,0.00,,,0.00,0,weatherlink.com 1.10,2013-02-16 13:18:00,
2013-02-16 05:33:00,38.3,36.0,30.25,NE,51,0.0,0.0,90,0.00,,,0.00,0,weatherlink.com 1.10,2013-02-16 13:33:00,
2013-02-16 05:48:00,38.1,36.0,30.25,NE,51,0.0,0.0,90,0.00,,,0.00,0,weatherlink.com 1.10,2013-02-16 13:48:00,
2013-02-16 06:03:00,37.9,35.0,30.25,NE,51,0.0,0.0,90,0.00,,,0.00,0,weatherlink.com 1.10,2013-02-16 14:03:00,
2013-02-16 06:18:00,37.7,35.0,30.25,NE,51,0.0,0.0,91,0.00,,,0.00,0,weatherlink.com 1.10,2013-02-16 14:18:00,
2013-02-16 06:33:00,37.8,36.0,30.25,NE,51,0.0,0.0,91,0.00,,,0.00,0,weatherlink.com 1.10,2013-02-16 14:33:00,
2013-02-16 06:48:00,37.9,36.0,30.26,NE,51,0.0,0.0,91,0.00,,,0.00,0,weatherlink.com 1.10,2013-02-16 14:48:00,
2013-02-16 07:03:00,37.8,36.0,30.26,NE,51,0.0,0.0,91,0.00,,,0.00,7,weatherlink.com 1.10,2013-02-16 15:03:00,
2013-02-16 07:18:00,37.8,36.0,30.26,NE,51,0.0,0.0,91,0.00,,,0.00,21,weatherlink.com 1.10,2013-02-16 15:18:00,
2013-02-16 07:33:00,38.1,36.0,30.26,NE,51,0.0,0.0,91,0.00,,,0.00,39,weatherlink.com 1.10,2013-02-16 15:33:00,
2013-02-16 07:48:00,38.9,37.0,30.26,NE,51,0.0,0.0,91,0.00,,,0.00,67,weatherlink.com 1.10,2013-02-16 15:48:00,
2013-02-16 08:03:00,39.8,37.0,30.26,NE,51,0.0,0.0,91,0.00,,,0.00,104,weatherlink.com 1.10,2013-02-16 16:03:00,
2013-02-16 08:18:00,41.2,39.0,30.26,NE,51,0.0,0.0,90,0.00,,,0.00,141,weatherlink.com 1.10,2013-02-16 16:18:00,
2013-02-16 08:33:00,42.6,39.0,30.26,NE,51,0.0,1.0,88,0.00,,,0.00,93,weatherlink.com 1.10,2013-02-16 16:33:00,
2013-02-16 08:48:00,43.8,40.0,30.27,NE,51,0.0,0.0,86,0.00,,,0.00,163,weatherlink.com 1.10,2013-02-16 16:48:00,
2013-02-16 09:03:00,46.1,41.0,30.27,NE,51,0.0,0.0,83,0.00,,,0.00,288,weatherlink.com 1.10,2013-02-16 17:03:00,
2013-02-16 09:19:00,47.5,40.0,30.26,NE,51,0.0,2.0,76,0.00,,,0.00,239,weatherlink.com 1.10,2013-02-16 17:19:00,
2013-02-16 09:34:00,48.3,41.0,30.26,NE,51,0.0,2.0,76,0.00,,,0.00,297,weatherlink.com 1.10,2013-02-16 17:34:00,
2013-02-16 09:49:00,49.6,42.0,30.26,NE,49,0.0,2.0,74,0.00,,,0.00,311,weatherlink.com 1.10,2013-02-16 17:49:00,
2013-02-16 10:04:00,50.9,42.0,30.25,NE,48,0.0,3.0,71,0.00,,,0.00,485,weatherlink.com 1.10,2013-02-16 18:04:00,
2013-02-16 10:19:00,52.3,42.0,30.25,West,276,0.0,4.0,67,0.00,,,0.00,448,weatherlink.com 1.10,2013-02-16 18:19:00,
2013-02-16 10:34:00,54.4,43.0,30.25,West,275,0.0,4.0,66,0.00,,,0.00,489,weatherlink.com 1.10,2013-02-16 18:34:00,
2013-02-16 10:49:00,56.9,45.0,30.24,West,275,0.0,3.0,65,0.00,,,0.00,404,weatherlink.com 1.10,2013-02-16 18:49:00,
2013-02-16 11:04:00,58.4,47.0,30.24,West,275,0.0,3.0,65,0.00,,,0.00,522,weatherlink.com 1.10,2013-02-16 19:04:00,
2013-02-16 11:19:00,60.9,48.0,30.23,NNE,30,3.0,5.0,62,0.00,,,0.00,471,weatherlink.com 1.10,2013-02-16 19:19:00,
2013-02-16 11:34:00,62.3,48.0,30.23,NE,40,4.0,6.0,60,0.00,,,0.00,494,weatherlink.com 1.10,2013-02-16 19:34:00,
2013-02-16 11:49:00,62.9,48.0,30.22,NNE,13,4.0,7.0,58,0.00,,,0.00,541,weatherlink.com 1.10,2013-02-16 19:49:00,
2013-02-16 12:04:00,62.9,47.0,30.22,NE,36,3.0,7.0,57,0.00,,,0.00,534,weatherlink.com 1.10,2013-02-16 20:04:00,
2013-02-16 12:19:00,63.9,46.0,30.21,ENE,68,5.0,7.0,53,0.00,,,0.00,668,weatherlink.com 1.10,2013-02-16 20:19:00,
2013-02-16 12:34:00,64.6,46.0,30.20,NNE,26,3.0,7.0,52,0.00,,,0.00,659,weatherlink.com 1.10,2013-02-16 20:34:00,
2013-02-16 12:49:00,63.9,45.0,30.20,NNE,28,3.0,8.0,50,0.00,,,0.00,380,weatherlink.com 1.10,2013-02-16 20:49:00,
2013-02-16 13:04:00,64.2,46.0,30.19,NE,47,2.0,9.0,51,0.00,,,0.00,522,weatherlink.com 1.10,2013-02-16 21:04:00,
2013-02-16 13:19:00,64.4,45.0,30.18,ENE,57,4.0,8.0,50,0.00,,,0.00,536,weatherlink.com 1.10,2013-02-16 21:19:00,
2013-02-16 13:35:00,64.4,45.0,30.17,NE,47,3.0,9.0,50,0.00,,,0.00,299,weatherlink.com 1.10,2013-02-16 21:35:00,
2013-02-16 13:50:00,64.2,45.0,30.17,NNE,31,5.0,8.0,50,0.00,,,0.00,657,weatherlink.com 1.10,2013-02-16 21:50:00,
2013-02-16 14:05:00,65.3,45.0,30.16,ENE,59,3.0,7.0,48,0.00,,,0.00,438,weatherlink.com 1.10,2013-02-16 22:05:00,
2013-02-16 14:20:00,66.1,46.0,30.15,ENE,69,4.0,8.0,48,0.00,,,0.00,617,weatherlink.com 1.10,2013-02-16 22:20:00,
2013-02-16 14:35:00,66.1,45.0,30.15,NE,49,4.0,5.0,47,0.00,,,0.00,285,weatherlink.com 1.10,2013-02-16 22:35:00,
2013-02-16 14:50:00,66.3,45.0,30.14,NE,38,4.0,5.0,47,0.00,,,0.00,540,weatherlink.com 1.10,2013-02-16 22:50:00,
2013-02-16 15:05:00,66.9,45.0,30.14,NE,44,2.0,6.0,45,0.00,,,0.00,339,weatherlink.com 1.10,2013-02-16 23:05:00,
2013-02-16 15:20:00,65.9,44.0,30.14,NNW,348,1.0,6.0,46,0.00,,,0.00,221,weatherlink.com 1.10,2013-02-16 23:20:00,
2013-02-16 15:35:00,65.8,45.0,30.13,ENE,63,1.0,4.0,47,0.00,,,0.00,193,weatherlink.com 1.10,2013-02-16 23:35:00,
2013-02-16 15:50:00,65.7,45.0,30.13,NE,52,2.0,5.0,48,0.00,,,0.00,218,weatherlink.com 1.10,2013-02-16 23:50:00,
2013-02-16 16:05:00,65.9,45.0,30.12,East,86,3.0,7.0,48,0.00,,,0.00,309,weatherlink.com 1.10,2013-02-17 00:05:00,
2013-02-16 16:20:00,65.9,44.0,30.12,East,86,0.0,6.0,46,0.00,,,0.00,239,weatherlink.com 1.10,2013-02-17 00:20:00,
2013-02-16 16:35:00,66.0,43.0,30.12,East,86,5.0,5.0,44,0.00,,,0.00,105,weatherlink.com 1.10,2013-02-17 00:35:00,
2013-02-16 16:50:00,65.6,44.0,30.11,ENE,69,2.0,4.0,46,0.00,,,0.00,142,weatherlink.com 1.10,2013-02-17 00:50:00,
2013-02-16 17:05:00,65.3,44.0,30.11,ENE,69,2.0,3.0,47,0.00,,,0.00,58,weatherlink.com 1.10,2013-02-17 01:05:00,
2013-02-16 17:20:00,65.0,45.0,30.11,ENE,69,0.0,1.0,49,0.00,,,0.00,44,weatherlink.com 1.10,2013-02-17 01:20:00,
2013-02-16 17:35:00,64.6,45.0,30.11,ENE,69,0.0,0.0,49,0.00,,,0.00,23,weatherlink.com 1.10,2013-02-17 01:35:00,
2013-02-16 17:50:00,63.8,45.0,30.11,ENE,69,0.0,0.0,51,0.00,,,0.00,7,weatherlink.com 1.10,2013-02-17 01:50:00,
2013-02-16 18:05:00,62.3,45.0,30.11,ENE,69,0.0,0.0,54,0.00,,,0.00,0,weatherlink.com 1.10,2013-02-17 02:05:00,
2013-02-16 18:20:00,60.5,45.0,30.11,ENE,69,0.0,0.0,58,0.00,,,0.00,0,weatherlink.com 1.10,2013-02-17 02:20:00,
2013-02-16 18:35:00,58.9,45.0,30.11,ENE,69,0.0,0.0,61,0.00,,,0.00,0,weatherlink.com 1.10,2013-02-17 02:35:00,
2013-02-16 18:50:00,57.6,45.0,30.11,ENE,69,0.0,0.0,63,0.00,,,0.00,0,weatherlink.com 1.10,2013-02-17 02:50:00,
2013-02-16 19:05:00,56.5,45.0,30.11,ENE,69,0.0,0.0,66,0.00,,,0.00,0,weatherlink.com 1.10,2013-02-17 03:05:00,
2013-02-16 19:20:00,55.3,45.0,30.11,ENE,69,0.0,0.0,68,0.00,,,0.00,0,weatherlink.com 1.10,2013-02-17 03:20:00,
2013-02-16 19:35:00,54.5,45.0,30.12,ENE,69,0.0,0.0,71,0.00,,,0.00,0,weatherlink.com 1.10,2013-02-17 03:35:00,
2013-02-16 19:50:00,53.7,45.0,30.11,ENE,69,0.0,0.0,73,0.00,,,0.00,0,weatherlink.com 1.10,2013-02-17 03:50:00,
2013-02-16 20:05:00,52.7,45.0,30.11,ENE,69,0.0,0.0,74,0.00,,,0.00,0,weatherlink.com 1.10,2013-02-17 04:05:00,
2013-02-16 20:20:00,51.7,44.0,30.11,ENE,69,0.0,0.0,76,0.00,,,0.00,0,weatherlink.com 1.10,2013-02-17 04:20:00,
2013-02-16 20:35:00,50.7,44.0,30.11,ENE,69,0.0,0.0,78,0.00,,,0.00,0,weatherlink.com 1.10,2013-02-17 04:35:00,
2013-02-16 20:50:00,49.7,43.0,30.12,ENE,69,0.0,0.0,79,0.00,,,0.00,0,weatherlink.com 1.10,2013-02-17 04:50:00,
2013-02-16 21:05:00,49.0,43.0,30.12,ENE,69,0.0,0.0,81,0.00,,,0.00,0,weatherlink.com 1.10,2013-02-17 05:05:00,
2013-02-16 21:20:00,48.7,43.0,30.12,ENE,69,0.0,1.0,81,0.00,,,0.00,0,weatherlink.com 1.10,2013-02-17 05:20:00,
2013-02-16 21:35:00,48.3,43.0,30.12,ENE,69,0.0,0.0,82,0.00,,,0.00,0,weatherlink.com 1.10,2013-02-17 05:35:00,
2013-02-16 21:50:00,47.6,42.0,30.12,ENE,69,0.0,0.0,82,0.00,,,0.00,0,weatherlink.com 1.10,2013-02-17 05:50:00,
2013-02-16 22:05:00,46.9,42.0,30.12,ENE,69,0.0,0.0,83,0.00,,,0.00,0,weatherlink.com 1.10,2013-02-17 06:05:00,
2013-02-16 22:20:00,46.3,42.0,30.11,ENE,69,0.0,0.0,84,0.00,,,0.00,0,weatherlink.com 1.10,2013-02-17 06:20:00,
2013-02-16 22:35:00,45.8,41.0,30.11,ENE,69,0.0,0.0,84,0.00,,,0.00,0,weatherlink.com 1.10,2013-02-17 06:35:00,
2013-02-16 22:50:00,45.6,41.0,30.11,ENE,69,0.0,1.0,85,0.00,,,0.00,0,weatherlink.com 1.10,2013-02-17 06:50:00,
2013-02-16 23:05:00,45.5,41.0,30.10,ENE,69,0.0,0.0,85,0.00,,,0.00,0,weatherlink.com 1.10,2013-02-17 07:05:00,
2013-02-16 23:20:00,45.0,41.0,30.10,ENE,69,0.0,0.0,85,0.00,,,0.00,0,weatherlink.com 1.10,2013-02-17 07:20:00,
2013-02-16 23:35:00,44.5,41.0,30.10,ENE,69,0.0,0.0,86,0.00,,,0.00,0,weatherlink.com 1.10,2013-02-17 07:35:00,
2013-02-16 23:50:00,43.8,40.0,30.10,ENE,69,0.0,0.0,87,0.00,,,0.00,0,weatherlink.com 1.10,2013-02-17 07:50:00,